createdAt,value
2023-01-23T00:01:56.565Z,-1.10
2023-01-23T00:04:42.178Z,-1.20
2023-01-23T00:07:27.317Z,-1.10
2023-01-23T00:10:12.965Z,-1.00
2023-01-23T00:12:58.604Z,-1.10
2023-01-23T00:15:44.406Z,-0.80
2023-01-23T00:18:29.740Z,-1.10
2023-01-23T00:21:17.162Z,-0.80
2023-01-23T00:24:02.611Z,-1.10
2023-01-23T00:26:47.987Z,-1.10
2023-01-23T00:29:33.407Z,-1.00
2023-01-23T00:32:18.699Z,-1.10
2023-01-23T00:35:04.507Z,-1.10
2023-01-23T00:37:50.111Z,-1.10
2023-01-23T00:40:35.705Z,-1.10
2023-01-23T00:43:21.620Z,-1.00
2023-01-23T00:46:07.164Z,-1.10
2023-01-23T00:48:52.845Z,-1.10
2023-01-23T00:51:38.526Z,-1.10
2023-01-23T00:54:25.972Z,-1.00
2023-01-23T00:57:11.255Z,-1.00
2023-01-23T00:59:56.733Z,-1.10
2023-01-23T01:02:42.356Z,-1.40
2023-01-23T01:05:27.990Z,-1.30
2023-01-23T01:08:13.333Z,-1.30
2023-01-23T01:10:58.888Z,-1.30
2023-01-23T01:13:44.866Z,-1.30
2023-01-23T01:16:30.386Z,-1.20
2023-01-23T01:19:17.699Z,-1.30
2023-01-23T01:22:03.211Z,-1.40
2023-01-23T01:24:48.772Z,-0.40
2023-01-23T01:27:34.047Z,-1.50
2023-01-23T01:30:20.291Z,-1.30
2023-01-23T01:33:06.111Z,-1.30
2023-01-23T01:35:52.027Z,-1.40
2023-01-23T01:38:37.564Z,-1.30
2023-01-23T01:41:22.886Z,-1.30
2023-01-23T01:44:15.930Z,-1.30
2023-01-23T01:47:01.452Z,-0.20
2023-01-23T01:49:47.801Z,-1.20
2023-01-23T01:52:33.291Z,-1.20
2023-01-23T01:55:19.121Z,-1.30
2023-01-23T01:58:04.499Z,-1.30
2023-01-23T02:00:50.050Z,-1.40
2023-01-23T02:03:36.098Z,-1.50
2023-01-23T02:06:21.472Z,-1.60
2023-01-23T02:09:14.955Z,-1.40
2023-01-23T02:12:02.052Z,-1.60
2023-01-23T02:14:47.388Z,-1.60
2023-01-23T02:17:35.591Z,-1.60
2023-01-23T02:20:24.692Z,-1.50
2023-01-23T02:23:33.990Z,-1.40
2023-01-23T02:26:27.915Z,-1.40
2023-01-23T02:29:14.707Z,-1.50
2023-01-23T02:32:00.073Z,-1.50
2023-01-23T02:34:45.892Z,-1.40
2023-01-23T02:37:34.514Z,-1.30
2023-01-23T02:40:29.675Z,-1.30
2023-01-23T02:43:21.365Z,-1.30
2023-01-23T02:46:12.197Z,-1.20
2023-01-23T02:48:58.099Z,-1.20
2023-01-23T02:51:43.371Z,-1.20
2023-01-23T02:54:29.013Z,-1.30
2023-01-23T02:57:14.431Z,-1.10
2023-01-23T03:00:20.700Z,-1.30
2023-01-23T03:03:07.924Z,-0.80
2023-01-23T03:05:55.577Z,-1.20
2023-01-23T03:08:49.108Z,-1.20
2023-01-23T03:11:35.757Z,-1.20
2023-01-23T03:14:23.673Z,-1.10
2023-01-23T03:17:11.103Z,-0.90
2023-01-23T03:19:57.823Z,-1.20
2023-01-23T03:22:43.194Z,-0.80
2023-01-23T03:25:28.858Z,-1.30
2023-01-23T03:28:32.839Z,-1.10
2023-01-23T03:31:18.283Z,-1.20
2023-01-23T03:34:03.768Z,-1.30
2023-01-23T03:36:49.368Z,-1.20
2023-01-23T03:39:53.560Z,-1.20
2023-01-23T03:42:38.763Z,-1.30
2023-01-23T03:45:24.207Z,-1.00
2023-01-23T03:48:09.976Z,-1.20
2023-01-23T03:50:55.267Z,-1.20
2023-01-23T03:53:40.784Z,-1.20
2023-01-23T03:56:26.272Z,-1.10
2023-01-23T03:59:11.826Z,-1.10
2023-01-23T04:01:58.129Z,-1.20
2023-01-23T04:04:43.823Z,-1.10
2023-01-23T04:07:29.351Z,-1.10
2023-01-23T04:10:15.839Z,-1.10
2023-01-23T04:13:01.074Z,-1.00
2023-01-23T04:15:46.740Z,-1.00
2023-01-23T04:18:32.934Z,-0.90
2023-01-23T04:21:18.202Z,-1.00
2023-01-23T04:24:03.847Z,-0.90
2023-01-23T04:26:49.402Z,-0.20
2023-01-23T04:29:34.802Z,-1.10
2023-01-23T04:32:20.362Z,-0.90
2023-01-23T04:35:06.263Z,-0.90
2023-01-23T04:37:52.051Z,-0.90
2023-01-23T04:40:37.686Z,-0.90
2023-01-23T04:43:23.547Z,-0.90
2023-01-23T04:46:08.907Z,-1.30
2023-01-23T04:48:54.859Z,-0.90
2023-01-23T04:51:40.756Z,-0.80
2023-01-23T04:54:26.279Z,-0.80
2023-01-23T04:57:11.815Z,-0.70
2023-01-23T04:59:59.523Z,-0.70
2023-01-23T05:02:50.059Z,-0.70
2023-01-23T05:05:35.537Z,-0.70
2023-01-23T05:08:21.071Z,-0.70
2023-01-23T05:11:06.715Z,-0.90
2023-01-23T05:13:52.440Z,-0.70
2023-01-23T05:16:37.832Z,-0.60
2023-01-23T05:19:23.455Z,-0.60
2023-01-23T05:22:09.151Z,-0.80
2023-01-23T05:24:54.766Z,-1.00
2023-01-23T05:27:40.240Z,-1.00
2023-01-23T05:30:25.766Z,-1.20
2023-01-23T05:33:11.043Z,-0.50
2023-01-23T05:36:00.886Z,-0.90
2023-01-23T05:38:46.257Z,-1.20
2023-01-23T05:41:31.805Z,-1.30
2023-01-23T05:44:17.492Z,-1.10
2023-01-23T05:47:03.086Z,-1.10
2023-01-23T05:49:48.180Z,-0.90
2023-01-23T05:52:34.989Z,-1.10
2023-01-23T05:55:20.309Z,-1.10
2023-01-23T05:58:05.947Z,-1.10
2023-01-23T06:00:51.252Z,-0.80
2023-01-23T06:03:36.686Z,-1.00
2023-01-23T06:06:21.955Z,-1.00
2023-01-23T06:09:07.402Z,-1.00
2023-01-23T06:11:53.024Z,-1.00
2023-01-23T06:14:38.925Z,-1.00
2023-01-23T06:17:24.684Z,-1.20
2023-01-23T06:20:11.423Z,-1.10
2023-01-23T06:22:57.377Z,-1.10
2023-01-23T06:25:43.146Z,-1.10
2023-01-23T06:28:29.133Z,-1.00
2023-01-23T06:31:14.550Z,-1.10
2023-01-23T06:34:00.579Z,-1.20
2023-01-23T06:36:46.303Z,-1.10
2023-01-23T06:39:31.781Z,-1.40
2023-01-23T06:42:17.524Z,-1.20
2023-01-23T06:45:02.766Z,-1.20
2023-01-23T06:47:48.326Z,-1.30
2023-01-23T06:50:33.846Z,-1.20
2023-01-23T06:53:19.521Z,-1.40
2023-01-23T06:56:07.354Z,-1.30
2023-01-23T06:58:53.070Z,-1.30
2023-01-23T07:01:39.750Z,-1.40
2023-01-23T07:04:25.198Z,-1.30
2023-01-23T07:07:10.630Z,-1.30
2023-01-23T07:09:56.078Z,-1.30
2023-01-23T07:12:41.683Z,-1.30
2023-01-23T07:15:27.056Z,-1.30
2023-01-23T07:18:12.716Z,-1.30
2023-01-23T07:20:58.139Z,-1.40
2023-01-23T07:23:43.721Z,-1.30
2023-01-23T07:26:29.068Z,-1.40
2023-01-23T07:29:14.712Z,-1.40
2023-01-23T07:32:01.103Z,-1.30
2023-01-23T07:34:46.371Z,-1.40
2023-01-23T07:37:31.907Z,-1.40
2023-01-23T07:40:18.073Z,-1.50
2023-01-23T07:43:03.703Z,-1.90
2023-01-23T07:45:49.212Z,-1.40
2023-01-23T07:48:34.327Z,-1.50
2023-01-23T07:51:21.049Z,-1.60
2023-01-23T07:54:06.455Z,-1.60
2023-01-23T07:56:51.822Z,-1.20
2023-01-23T07:59:37.283Z,-1.60
2023-01-23T08:02:22.947Z,-1.60
2023-01-23T08:05:08.620Z,-1.40
2023-01-23T08:08:07.403Z,-1.50
2023-01-23T08:10:57.733Z,-1.40
2023-01-23T08:13:43.470Z,-1.20
2023-01-23T08:16:29.222Z,-1.40
2023-01-23T08:19:14.712Z,-1.40
2023-01-23T08:22:00.509Z,-1.40
2023-01-23T08:24:46.153Z,-1.40
2023-01-23T08:27:31.786Z,-1.40
2023-01-23T08:30:18.178Z,-0.70
2023-01-23T08:33:04.832Z,-1.30
2023-01-23T08:35:57.260Z,-1.40
2023-01-23T08:38:42.901Z,-1.40
2023-01-23T08:41:28.154Z,-1.50
2023-01-23T08:44:13.776Z,-1.50
2023-01-23T08:46:59.037Z,-1.60
2023-01-23T08:49:44.466Z,-1.60
2023-01-23T08:52:30.175Z,-1.50
2023-01-23T08:55:15.441Z,-1.10
2023-01-23T08:58:00.736Z,-1.40
2023-01-23T09:00:48.050Z,-1.60
2023-01-23T09:03:33.863Z,-1.30
2023-01-23T09:06:21.983Z,-1.40
2023-01-23T09:09:07.630Z,-1.30
2023-01-23T09:11:54.162Z,-1.60
2023-01-23T09:14:39.815Z,-1.70
2023-01-23T09:17:25.405Z,-1.60
2023-01-23T09:20:11.586Z,-1.70
2023-01-23T09:22:56.992Z,-1.70
2023-01-23T09:25:42.504Z,-1.70
2023-01-23T09:28:28.133Z,-1.80
2023-01-23T09:31:14.667Z,-1.70
2023-01-23T09:33:59.972Z,-1.70
2023-01-23T09:36:45.684Z,-1.60
2023-01-23T09:39:31.250Z,-1.50
2023-01-23T09:42:23.527Z,-1.40
2023-01-23T09:45:15.427Z,-1.30
2023-01-23T09:48:29.897Z,-1.10
2023-01-23T09:51:23.191Z,-1.30
2023-01-23T09:54:32.705Z,-1.40
2023-01-23T09:57:26.079Z,-1.40
2023-01-23T10:00:22.769Z,-1.30
2023-01-23T10:03:15.466Z,-1.30
2023-01-23T10:06:06.779Z,-1.20
2023-01-23T10:09:20.297Z,-1.20
2023-01-23T10:12:25.939Z,-1.20
2023-01-23T10:15:22.474Z,-1.10
2023-01-23T10:18:47.198Z,-1.00
2023-01-23T10:21:41.396Z,-1.10
2023-01-23T10:24:40.749Z,-0.90
2023-01-23T10:27:44.334Z,-0.90
2023-01-23T10:30:34.681Z,-1.20
2023-01-23T10:33:20.263Z,-1.10
2023-01-23T10:36:23.975Z,-1.20
2023-01-23T10:40:02.482Z,-1.20
2023-01-23T10:42:47.995Z,-1.30
2023-01-23T10:45:33.387Z,-1.20
2023-01-23T10:48:44.700Z,-1.20
2023-01-23T10:51:38.518Z,-1.10
2023-01-23T10:54:33.860Z,-1.00
2023-01-23T10:57:26.494Z,-1.10
2023-01-23T11:00:27.842Z,-0.70
2023-01-23T11:03:22.492Z,-1.10
2023-01-23T11:06:16.409Z,-1.00
2023-01-23T11:09:02.005Z,-0.90
2023-01-23T11:12:00.599Z,-0.80
2023-01-23T11:14:46.404Z,-1.00
2023-01-23T11:17:33.528Z,-0.70
2023-01-23T11:20:46.877Z,-0.40
2023-01-23T11:23:34.568Z,-0.10
2023-01-23T11:26:31.579Z,0.00
2023-01-23T11:29:26.025Z,0.40
2023-01-23T11:32:13.593Z,-0.10
2023-01-23T11:35:45.059Z,0.30
2023-01-23T11:38:52.129Z,0.30
2023-01-23T11:41:39.401Z,0.20
2023-01-23T11:44:25.540Z,0.20
2023-01-23T11:47:46.049Z,0.20
2023-01-23T11:50:54.501Z,0.20
2023-01-23T11:54:04.195Z,-0.10
2023-01-23T11:57:08.673Z,0.40
2023-01-23T12:00:25.269Z,-0.40
2023-01-23T12:03:24.453Z,-0.40
2023-01-23T12:06:21.872Z,-0.60
2023-01-23T12:09:13.293Z,-0.10
2023-01-23T12:12:19.824Z,-0.40
2023-01-23T12:15:23.265Z,-0.10
2023-01-23T12:18:38.438Z,0.10
2023-01-23T12:21:42.609Z,0.10
2023-01-23T12:25:05.706Z,0.10
2023-01-23T12:28:17.302Z,0.00
2023-01-23T12:31:14.792Z,0.00
2023-01-23T12:34:06.689Z,0.00
2023-01-23T12:37:08.492Z,0.00
2023-01-23T12:40:11.018Z,0.00
2023-01-23T12:43:12.999Z,0.00
2023-01-23T12:46:08.483Z,-0.30
2023-01-23T12:49:31.667Z,-0.30
2023-01-23T12:52:44.387Z,-0.20
2023-01-23T12:55:59.273Z,-0.10
2023-01-23T12:59:00.445Z,-0.30
2023-01-23T13:02:00.729Z,-0.20
2023-01-23T13:05:34.658Z,-0.10
2023-01-23T13:08:38.092Z,-0.10
2023-01-23T13:11:55.518Z,-0.30
2023-01-23T13:15:00.641Z,-0.30
2023-01-23T13:17:59.184Z,-0.40
2023-01-23T13:21:17.790Z,-0.30
2023-01-23T13:24:45.544Z,-0.40
2023-01-23T13:27:50.553Z,-0.50
2023-01-23T13:30:39.787Z,-0.40
2023-01-23T13:33:34.309Z,-0.80
2023-01-23T13:36:28.722Z,-0.40
2023-01-23T13:39:16.957Z,-0.40
2023-01-23T13:42:14.951Z,-0.50
2023-01-23T13:45:27.525Z,-0.40
2023-01-23T14:26:49.529Z,-0.50
2023-01-23T14:29:35.451Z,-0.20
2023-01-23T14:32:23.957Z,-0.10
2023-01-23T14:35:31.095Z,-0.30
2023-01-23T14:38:26.926Z,-0.30
2023-01-23T14:41:12.470Z,-0.20
2023-01-23T14:43:58.886Z,-0.10
2023-01-23T14:46:46.653Z,-0.20
2023-01-23T14:49:35.975Z,-0.30
2023-01-23T14:52:28.883Z,-0.30
2023-01-23T14:55:29.330Z,-0.20
2023-01-23T14:58:25.370Z,-0.30
2023-01-23T15:01:11.267Z,-0.20
2023-01-23T15:04:02.431Z,-0.50
2023-01-23T15:06:53.603Z,-0.40
2023-01-23T15:09:44.958Z,-0.40
2023-01-23T15:12:30.243Z,-0.40
2023-01-23T15:15:20.530Z,-0.50
2023-01-23T15:18:18.389Z,-0.50
2023-01-23T15:21:06.604Z,-0.50
2023-01-23T15:24:10.258Z,-0.50
2023-01-23T15:26:58.170Z,-0.40
2023-01-23T15:29:44.860Z,-0.50
2023-01-23T15:32:30.459Z,-0.50
2023-01-23T15:35:17.870Z,-0.50
2023-01-23T15:38:05.847Z,-0.50
2023-01-23T15:40:52.738Z,-0.40
2023-01-23T15:43:38.401Z,-0.40
2023-01-23T15:46:23.836Z,-0.40
2023-01-23T15:49:23.590Z,-0.40
2023-01-23T15:52:24.208Z,-0.40
2023-01-23T15:55:11.476Z,-0.50
2023-01-23T15:57:57.228Z,-1.00
2023-01-23T16:00:42.637Z,-0.50
2023-01-23T16:03:28.287Z,-0.40
2023-01-23T16:06:21.796Z,-0.70
2023-01-23T16:09:07.429Z,-0.40
2023-01-23T16:11:53.484Z,-0.50
2023-01-23T16:14:38.737Z,-0.50
2023-01-23T16:17:24.403Z,-0.50
2023-01-23T16:20:34.680Z,-0.60
2023-01-23T16:23:24.624Z,-0.40
2023-01-23T16:26:20.965Z,0.20
2023-01-23T16:29:13.665Z,-0.40
2023-01-23T16:32:01.137Z,-0.30
2023-01-23T16:34:46.694Z,-0.40
2023-01-23T16:37:32.419Z,-0.30
2023-01-23T16:40:22.026Z,-0.20
2023-01-23T16:43:07.403Z,-0.50
2023-01-23T16:45:56.207Z,-0.30
2023-01-23T16:48:41.978Z,-0.40
2023-01-23T16:51:27.698Z,-0.40
2023-01-23T16:54:19.321Z,-0.40
2023-01-23T16:57:04.684Z,-0.50
2023-01-23T16:59:51.094Z,-0.30
2023-01-23T17:02:36.521Z,-0.40
2023-01-23T17:05:22.385Z,-0.10
2023-01-23T17:08:23.304Z,-0.50
2023-01-23T17:11:14.115Z,-0.50
2023-01-23T17:14:02.945Z,-0.40
2023-01-23T17:16:50.050Z,-0.40
2023-01-23T17:19:41.565Z,-0.30
2023-01-23T17:22:33.182Z,0.00
2023-01-23T17:25:24.467Z,-0.30
2023-01-23T17:28:13.148Z,-0.30
2023-01-23T17:31:00.679Z,-2.50
2023-01-23T17:33:45.997Z,-0.30
2023-01-23T17:36:31.536Z,-0.30
2023-01-23T17:39:16.897Z,-0.30
2023-01-23T17:42:02.385Z,-0.30
2023-01-23T17:44:48.893Z,-0.30
2023-01-23T17:47:35.141Z,-0.30
2023-01-23T17:50:23.336Z,-0.20
2023-01-23T17:53:15.563Z,-0.30
2023-01-23T17:56:01.084Z,-0.30
2023-01-23T17:58:46.680Z,-0.20
2023-01-23T18:01:31.860Z,-0.20
2023-01-23T18:04:20.048Z,-0.20
2023-01-23T18:07:05.320Z,-0.30
2023-01-23T18:09:51.224Z,-0.20
2023-01-23T18:13:04.490Z,-0.10
2023-01-23T18:16:05.518Z,-0.10
2023-01-23T18:18:58.654Z,0.00
2023-01-23T18:21:47.424Z,-0.10
2023-01-23T18:24:33.478Z,-0.10
2023-01-23T18:27:25.024Z,-1.10
2023-01-23T18:30:39.955Z,-0.10
2023-01-23T18:33:40.341Z,-0.10
2023-01-23T18:37:00.955Z,-0.10
2023-01-23T18:40:43.342Z,-0.10
2023-01-23T18:43:39.861Z,-0.10
2023-01-23T18:46:27.866Z,-0.10
2023-01-23T18:49:18.979Z,0.00
2023-01-23T18:52:15.363Z,0.00
2023-01-23T18:55:26.598Z,-0.10
2023-01-23T18:58:12.413Z,0.10
2023-01-23T19:01:16.602Z,0.10
2023-01-23T19:04:01.989Z,0.10
2023-01-23T19:06:47.848Z,0.10
2023-01-23T19:09:34.328Z,0.00
2023-01-23T19:12:50.567Z,0.00
2023-01-23T19:15:45.216Z,0.50
2023-01-23T19:18:40.154Z,0.10
2023-01-23T19:21:28.322Z,0.10
2023-01-23T19:24:18.182Z,0.10
2023-01-23T19:27:03.854Z,0.10
2023-01-23T19:29:49.302Z,0.10
2023-01-23T19:32:35.520Z,0.10
2023-01-23T19:35:21.602Z,0.20
2023-01-23T19:38:06.867Z,0.20
2023-01-23T19:40:52.462Z,0.40
2023-01-23T19:43:38.133Z,0.30
2023-01-23T19:46:32.283Z,0.40
2023-01-23T19:49:17.889Z,0.40
2023-01-23T19:52:03.594Z,0.20
2023-01-23T19:54:48.885Z,0.30
2023-01-23T19:57:34.519Z,0.20
2023-01-23T20:00:20.527Z,0.20
2023-01-23T20:03:06.175Z,0.30
2023-01-23T20:05:51.707Z,0.30
2023-01-23T20:08:37.129Z,0.30
2023-01-23T20:11:22.811Z,0.30
2023-01-23T20:14:08.415Z,0.20
2023-01-23T20:16:53.910Z,0.30
2023-01-23T20:19:40.248Z,0.40
2023-01-23T20:22:25.574Z,0.40
2023-01-23T20:25:13.941Z,0.20
2023-01-23T20:27:59.327Z,1.90
2023-01-23T20:30:44.771Z,0.30
2023-01-23T20:33:30.415Z,0.40
2023-01-23T20:36:16.025Z,0.40
2023-01-23T20:39:01.652Z,0.30
2023-01-23T20:41:47.105Z,0.40
2023-01-23T20:44:32.639Z,0.40
2023-01-23T20:47:18.071Z,0.50
2023-01-23T20:50:04.499Z,0.50
2023-01-23T20:53:08.978Z,0.50
2023-01-23T20:55:58.792Z,0.50
2023-01-23T20:59:05.600Z,0.50
2023-01-23T21:02:09.972Z,0.60
2023-01-23T21:04:55.385Z,0.40
2023-01-23T21:07:41.022Z,0.40
2023-01-23T21:10:27.024Z,0.80
2023-01-23T21:13:15.647Z,0.60
2023-01-23T21:16:04.282Z,-0.30
2023-01-23T21:18:49.584Z,0.60
2023-01-23T21:21:35.433Z,0.70
2023-01-23T21:24:21.159Z,0.70
2023-01-23T21:27:07.111Z,0.60
2023-01-23T21:29:52.251Z,0.60
2023-01-23T21:32:37.871Z,0.60
2023-01-23T21:35:23.892Z,0.70
2023-01-23T21:38:09.251Z,0.60
2023-01-23T21:40:54.966Z,0.70
2023-01-23T21:43:40.473Z,0.60
2023-01-23T21:46:26.562Z,0.70
2023-01-23T21:49:11.820Z,0.50
2023-01-23T21:51:57.766Z,0.70
2023-01-23T21:54:43.297Z,0.60
2023-01-23T21:57:28.547Z,0.70
2023-01-23T22:00:32.572Z,0.60
2023-01-23T22:03:18.047Z,0.60
2023-01-23T22:06:03.627Z,0.60
2023-01-23T22:08:49.100Z,0.60
2023-01-23T22:11:35.370Z,0.50
2023-01-23T22:14:20.810Z,0.60
2023-01-23T22:17:07.992Z,0.50
2023-01-23T22:19:53.259Z,0.60
2023-01-23T22:22:38.884Z,0.60
2023-01-23T22:25:24.199Z,0.60
2023-01-23T22:28:09.877Z,0.40
2023-01-23T22:30:56.413Z,0.90
2023-01-23T22:33:45.838Z,0.80
2023-01-23T22:36:31.278Z,0.60
2023-01-23T22:39:17.116Z,0.50
2023-01-23T22:42:02.938Z,0.50
2023-01-23T22:44:48.289Z,0.60
2023-01-23T22:47:33.909Z,0.50
2023-01-23T22:50:20.056Z,0.60
2023-01-23T22:53:05.447Z,0.60
2023-01-23T23:02:14.819Z,0.50
2023-01-23T23:05:00.169Z,0.80
2023-01-23T23:17:20.287Z,0.50
2023-01-23T23:20:06.986Z,0.40
2023-01-23T23:29:14.602Z,0.40
2023-01-23T23:31:59.961Z,0.40
2023-01-23T23:34:45.513Z,0.40
2023-01-23T23:37:31.005Z,0.40
2023-01-23T23:40:16.786Z,0.40
2023-01-23T23:43:02.088Z,0.50
2023-01-23T23:45:51.913Z,0.50
2023-01-23T23:48:38.434Z,0.50
2023-01-23T23:51:26.481Z,0.60
2023-01-23T23:54:12.004Z,0.60
2023-01-23T23:56:57.550Z,0.50
2023-01-23T23:59:43.305Z,0.30
